^^
Grace C. Lehan Memorial Weather Station Historical Data
Daily Summary for December 19, 2021 Units:  English    Metric   Both
Daily Weekly Monthly Yearly
  High: Low: Average:
Temperature: 38.2 °F 26 °F 34.2 °F
Dew Point: 36.9 °F 20.4 °F 29.2 °F
Humidity: 96% 68.2% 82%
Wind Speed: 12.2mph 0mph 3.6mph
Wind Gust: 25mph - -
Wind- - NNW
Pressure: 30.23 in 29.77 in -
Precipitation: 0.16 in    
 
 
Tabular Data for December 19, 2021
Time Temperature Dew Point Pressure Wind Wind Speed Wind Gust Humidity Rainfall Rate (Hourly) solar
00:04 36.6 °F 35.3 °F 29.79 in NW 1.7 mph 6 mph 95% 0.11 in 0 W/m2
00:09 36.6 °F 35.3 °F 29.79 in NNW 1.9 mph 5 mph 95% 0.13 in 0 W/m2
00:14 36.6 °F 35.3 °F 29.79 in NNW 3 mph 7 mph 95% 0.15 in 0 W/m2
00:19 36.5 °F 35.2 °F 29.78 in NNW 1.6 mph 7 mph 95% 0.16 in 0 W/m2
00:24 36.5 °F 35.2 °F 29.79 in NNW 3.3 mph 9 mph 95% 0.17 in 0 W/m2
00:29 36.5 °F 35.2 °F 29.79 in NNW 1.3 mph 9 mph 95% 0.17 in 0 W/m2
00:34 36.5 °F 35.2 °F 29.79 in NNW 1.1 mph 9 mph 95% 0.17 in 0 W/m2
00:39 36.5 °F 35.2 °F 29.79 in NNW 1.1 mph 6 mph 95% 0.18 in 0 W/m2
00:44 36.5 °F 35.2 °F 29.79 in NW 0.9 mph 6 mph 95% 0.18 in 0 W/m2
00:49 36.6 °F 35.3 °F 29.79 in NW 0.3 mph 6 mph 95% 0.18 in 0 W/m2
00:54 36.6 °F 35.3 °F 29.79 in Calm   6 mph 95% 0.19 in 0 W/m2
00:59 36.6 °F 35.3 °F 29.79 in NW 0.4 mph 6 mph 95% 0.19 in 0 W/m2
01:04 36.6 °F 35.3 °F 29.79 in NW 1.1 mph 6 mph 95% 0.19 in 0 W/m2
01:09 36.7 °F 35.4 °F 29.80 in NW 2.1 mph 5 mph 95% 0.10 in 0 W/m2
01:14 36.8 °F 35.5 °F 29.80 in NNW 0.9 mph 5 mph 95% 0.11 in 0 W/m2
01:19 36.8 °F 35.5 °F 29.79 in NNW 1 mph 7 mph 95% 0.11 in 0 W/m2
01:24 36.8 °F 35.5 °F 29.79 in NNW 0.5 mph 7 mph 95% 0.11 in 0 W/m2
01:29 36.8 °F 35.5 °F 29.78 in NNW 1.1 mph 7 mph 95% 0.11 in 0 W/m2
01:34 36.8 °F 35.5 °F 29.78 in NNW 0.4 mph 7 mph 95% 0.11 in 0 W/m2
01:39 36.9 °F 35.6 °F 29.78 in NNW 0.1 mph 3 mph 95% 0.03 in 0 W/m2
01:44 36.9 °F 35.6 °F 29.77 in North 1.1 mph 7 mph 95% 0.03 in 0 W/m2
01:49 36.9 °F 35.6 °F 29.78 in North 0.2 mph 7 mph 95% 0.04 in 0 W/m2
01:54 37 °F 35.7 °F 29.78 in North 1.4 mph 7 mph 95% 0.04 in 0 W/m2
01:59 37 °F 35.7 °F 29.78 in NNW 1.2 mph 7 mph 95% 0.04 in 0 W/m2
02:04 37 °F 35.7 °F 29.78 in NNW 0.3 mph 7 mph 95% 0.04 in 0 W/m2
02:09 37 °F 35.7 °F 29.78 in NNW 0.6 mph 5 mph 95% 0.03 in 0 W/m2
02:14 37 °F 35.7 °F 29.78 in Calm   5 mph 95% 0.03 in 0 W/m2
02:19 37 °F 35.7 °F 29.78 in NNW 0.1 mph 5 mph 95% 0.04 in 0 W/m2
02:24 37 °F 35.7 °F 29.79 in NNW 1.1 mph 5 mph 95% 0.04 in 0 W/m2
02:29 37 °F 35.7 °F 29.80 in NNW 0.2 mph 5 mph 95% 0.05 in 0 W/m2
02:34 37 °F 35.8 °F 29.80 in NNW 0.3 mph 5 mph 95.3% 0.05 in 0 W/m2
02:39 37.1 °F 36.1 °F 29.80 in NNW 0.7 mph 5 mph 96% 0.04 in 0 W/m2
02:44 37.1 °F 36.1 °F 29.80 in NNW 0.1 mph 5 mph 96% 0.04 in 0 W/m2
02:49 37.2 °F 36.1 °F 29.79 in NNW 0.5 mph 5 mph 96% 0.04 in 0 W/m2
02:54 37.2 °F 36.2 °F 29.80 in NNW 0.8 mph 6 mph 96% 0.04 in 0 W/m2
02:59 37.2 °F 36.2 °F 29.80 in NNW 1.6 mph 6 mph 96% 0.04 in 0 W/m2
03:04 37.2 °F 36.2 °F 29.80 in NNW 0.3 mph 6 mph 96% 0.04 in 0 W/m2
03:09 37.3 °F 36.3 °F 29.80 in NNW 0.6 mph 4 mph 96% 0.03 in 0 W/m2
03:14 37.3 °F 36.2 °F 29.80 in NNW 0.5 mph 4 mph 95.8% 0.03 in 0 W/m2
03:19 37.4 °F 36.2 °F 29.81 in NNW 0.3 mph 4 mph 95.5% 0.03 in 0 W/m2
03:24 37.4 °F 36.1 °F 29.79 in NW 0.3 mph 7 mph 95.2% 0.03 in 0 W/m2
03:29 37.4 °F 36.1 °F 29.79 in NW 0.9 mph 7 mph 95% 0.04 in 0 W/m2
03:34 37.4 °F 36.1 °F 29.79 in NW 1 mph 7 mph 95% 0.04 in 0 W/m2
03:39 37.4 °F 36.1 °F 29.80 in NNW 1.9 mph 9 mph 95% 0.01 in 0 W/m2
03:44 37.4 °F 36.1 °F 29.80 in NW 2.3 mph 9 mph 95% 0.01 in 0 W/m2
03:49 37.4 °F 36.1 °F 29.80 in NW 1.8 mph 9 mph 95% 0.01 in 0 W/m2
03:54 37.4 °F 36.1 °F 29.80 in NW 2 mph 9 mph 95% 0.01 in 0 W/m2
03:59 37.4 °F 36.1 °F 29.80 in North 1.1 mph 9 mph 95% 0.01 in 0 W/m2
04:04 37.4 °F 36.1 °F 29.79 in Calm     95% 0.00 in 0 W/m2
04:09 37.4 °F 36.1 °F 29.80 in North 2.2 mph 7 mph 95% 0.01 in 0 W/m2
04:14 37.4 °F 36.1 °F 29.80 in NNW 1.5 mph 7 mph 95% 0.01 in 0 W/m2
04:19 37.4 °F 36.1 °F 29.80 in NNW 1.2 mph 7 mph 95% 0.01 in 0 W/m2
04:24 37.4 °F 36.1 °F 29.80 in NNW 1.9 mph 7 mph 95% 0.01 in 0 W/m2
04:29 37.4 °F 36.1 °F 29.80 in NNW 1.6 mph 7 mph 95% 0.01 in 0 W/m2
04:34 37.5 °F 36.2 °F 29.80 in NNW 0.2 mph 7 mph 95% 0.01 in 0 W/m2
04:39 37.5 °F 36.2 °F 29.80 in NNW 1.8 mph 5 mph 95% 0.00 in 0 W/m2
04:44 37.5 °F 36.2 °F 29.79 in NNW 0.3 mph 5 mph 95% 0.00 in 0 W/m2
04:49 37.5 °F 36.2 °F 29.80 in NNW 0.2 mph 5 mph 95% 0.00 in 0 W/m2
04:54 37.6 °F 36.3 °F 29.81 in NNW 1.1 mph 5 mph 95% 0.00 in 0 W/m2
04:59 37.6 °F 36.3 °F 29.81 in NNW 0.6 mph 5 mph 95% 0.00 in 0 W/m2
05:04 37.6 °F 36.3 °F 29.81 in NNW 0.1 mph 5 mph 95% 0.00 in 0 W/m2
05:09 37.7 °F 36.6 °F 29.82 in Calm   2 mph 95.7% 0.00 in 0 W/m2
05:14 37.7 °F 36.7 °F 29.82 in Calm   2 mph 96% 0.00 in 0 W/m2
05:19 37.7 °F 36.7 °F 29.83 in Calm   2 mph 96% 0.00 in 0 W/m2
05:24 37.8 °F 36.8 °F 29.83 in Calm   2 mph 96% 0.00 in 0 W/m2
05:29 37.8 °F 36.8 °F 29.83 in Calm   2 mph 96% 0.00 in 0 W/m2
05:34 37.9 °F 36.8 °F 29.83 in NNW 0.1 mph 2 mph 96% 0.00 in 0 W/m2
05:39 37.9 °F 36.9 °F 29.84 in NNW 1.4 mph 5 mph 96% 0.00 in 0 W/m2
05:44 38 °F 36.9 °F 29.84 in NNW 0.8 mph 5 mph 96% 0.00 in 0 W/m2
05:49 38 °F 36.9 °F 29.85 in NW 1.8 mph 10 mph 95.5% 0.00 in 0 W/m2
05:54 38.1 °F 36.8 °F 29.85 in NW 1.5 mph 12 mph 95% 0.00 in 0 W/m2
05:59 38 °F 36.7 °F 29.85 in NW 4.3 mph 12 mph 95% 0.00 in 0 W/m2
06:04 38 °F 36.7 °F 29.85 in WNW 2.9 mph 14 mph 95% 0.00 in 0 W/m2
06:09 37.9 °F 36.6 °F 29.85 in WNW 1.8 mph 14 mph 95% 0.00 in 0 W/m2
06:14 37.9 °F 36.6 °F 29.86 in NW 1 mph 14 mph 95% 0.00 in 0 W/m2
06:19 37.9 °F 36.6 °F 29.87 in NNW 0.8 mph 14 mph 95% 0.00 in 0 W/m2
06:24 37.9 °F 36.6 °F 29.88 in NW 0.9 mph 14 mph 95% 0.00 in 0 W/m2
06:29 37.9 °F 36.6 °F 29.88 in NNW 1 mph 14 mph 95% 0.00 in 0 W/m2
06:34 37.9 °F 36.6 °F 29.88 in NNW 0.7 mph 14 mph 95% 0.00 in 0 W/m2
06:39 37.9 °F 36.6 °F 29.88 in NNW 0.3 mph 5 mph 95% 0.00 in 0 W/m2
06:44 37.9 °F 36.6 °F 29.89 in NW 1.7 mph 7 mph 95% 0.00 in 0 W/m2
06:49 37.9 °F 36.5 °F 29.89 in NW 3.2 mph 10 mph 94.8% 0.00 in 0 W/m2
06:54 37.8 °F 36.2 °F 29.89 in NNW 3.3 mph 10 mph 94% 0.00 in 0 W/m2
06:59 37.7 °F 36.1 °F 29.89 in NW 2.9 mph 10 mph 94% 0.00 in 0 W/m2
07:04 37.6 °F 35.9 °F 29.90 in NW 4.6 mph 15 mph 93.5% 0.00 in 0 W/m2
07:09 37.6 °F 35.8 °F 29.90 in NW 4.3 mph 15 mph 93% 0.00 in 0 W/m2
07:14 37.5 °F 35.6 °F 29.90 in NW 7.3 mph 17 mph 92.6% 0.00 in 0 W/m2
07:19 37.5 °F 35.4 °F 29.89 in NW 6.6 mph 20 mph 92% 0.00 in 0 W/m2
07:24 37.4 °F 35.1 °F 29.90 in NW 9.6 mph 23 mph 91% 0.00 in 0 W/m2
07:29 37.4 °F 34.6 °F 29.90 in NW 6.4 mph 23 mph 89.7% 0.00 in 5 W/m2
07:34 37.3 °F 34.4 °F 29.91 in NW 6.6 mph 23 mph 89% 0.00 in 7 W/m2
07:39 37.3 °F 34.2 °F 29.91 in NW 6.6 mph 17 mph 88.4% 0.00 in 5 W/m2
07:44 37.3 °F 34 °F 29.91 in NW 6.1 mph 17 mph 87.6% 0.00 in 9 W/m2
07:49 37.4 °F 33.9 °F 29.91 in NW 5.4 mph 17 mph 87% 0.00 in 9 W/m2
07:54 37.4 °F 34.3 °F 29.92 in NNW 5.2 mph 17 mph 88.5% 0.00 in 7 W/m2
07:59 37.4 °F 34.6 °F 29.92 in NW 2.6 mph 17 mph 89.6% 0.00 in 7 W/m2
08:00 37.4 °F 35.3 °F 29.92 in NW 5 mph 17 mph 92% 0.00 in 7 W/m2
08:09 37.4 °F 34.5 °F 29.93 in NW 9 mph 21 mph 89.1% 0.00 in 32 W/m2
08:14 37.3 °F 33.4 °F 29.94 in NW 9.1 mph 21 mph 85.6% 0.00 in 37 W/m2
08:19 37.3 °F 33.1 °F 29.93 in WNW 12.1 mph 21 mph 84.6% 0.00 in 46 W/m2
08:24 37.3 °F 32.9 °F 29.92 in NW 9.7 mph 21 mph 84% 0.00 in 53 W/m2
08:29 37.3 °F 32.9 °F 29.93 in NW 11.3 mph 24 mph 84% 0.00 in 60 W/m2
08:34 37.3 °F 32.9 °F 29.94 in NW 12 mph 24 mph 84% 0.00 in 65 W/m2
08:39 37.2 °F 32.7 °F 29.94 in WNW 12.2 mph 21 mph 83.9% 0.00 in 63 W/m2
08:44 37 °F 32.3 °F 29.94 in NW 10.1 mph 21 mph 83% 0.00 in 91 W/m2
08:49 36.8 °F 32.2 °F 29.94 in WNW 9.1 mph 22 mph 83% 0.00 in 84 W/m2
08:54 36.8 °F 32.1 °F 29.94 in NW 9.6 mph 22 mph 83% 0.00 in 76 W/m2
08:59 36.6 °F 32 °F 29.95 in NW 10.3 mph 22 mph 83% 0.00 in 76 W/m2
09:04 36.6 °F 31.6 °F 29.95 in NW 11 mph 23 mph 82.2% 0.00 in 91 W/m2
09:09 36.5 °F 31.4 °F 29.94 in NW 10 mph 25 mph 81.4% 0.00 in 95 W/m2
09:14 36.5 °F 31.2 °F 29.95 in NW 8.9 mph 25 mph 81% 0.00 in 100 W/m2
09:19 36.5 °F 31.2 °F 29.96 in NW 5.9 mph 25 mph 81% 0.00 in 120 W/m2
09:24 36.6 °F 31.3 °F 29.96 in NW 8.7 mph 25 mph 81% 0.00 in 120 W/m2
09:29 36.6 °F 31.3 °F 29.97 in NW 4.9 mph 25 mph 80.8% 0.00 in 72 W/m2
09:34 36.6 °F 31.1 °F 29.97 in NW 8 mph 25 mph 80.1% 0.00 in 74 W/m2
09:39 36.5 °F 30.9 °F 29.97 in NW 8.7 mph 17 mph 80% 0.00 in 62 W/m2
09:44 36.4 °F 30.8 °F 29.97 in NW 8.5 mph 18 mph 80% 0.00 in 107 W/m2
09:49 36.3 °F 30.6 °F 29.98 in NW 4.2 mph 18 mph 79.8% 0.00 in 72 W/m2
09:54 36.3 °F 30.7 °F 29.99 in NW 6.1 mph 18 mph 80% 0.00 in 134 W/m2
09:59 36.4 °F 30.9 °F 29.99 in NW 8.4 mph 18 mph 80% 0.00 in 155 W/m2
10:04 36.6 °F 31 °F 29.99 in NW 5.8 mph 18 mph 80% 0.00 in 135 W/m2
10:09 36.7 °F 30.9 °F 29.99 in NW 3.9 mph 17 mph 79.1% 0.00 in 162 W/m2
10:14 36.9 °F 31.2 °F 29.99 in NW 7.4 mph 17 mph 79.7% 0.00 in 257 W/m2
10:19 37.3 °F 31.6 °F 29.99 in NW 9.7 mph 20 mph 79.5% 0.00 in 473 W/m2
10:24 37.9 °F 31.8 °F 29.99 in NNW 8.6 mph 20 mph 78.6% 0.00 in 424 W/m2
10:29 38.2 °F 31.9 °F 29.99 in NW 8.7 mph 20 mph 77.7% 0.00 in 265 W/m2
10:34 38.1 °F 31.6 °F 30.00 in NW 8.3 mph 20 mph 77% 0.00 in 218 W/m2
10:39 38 °F 31.5 °F 30.00 in NW 5.6 mph 20 mph 77% 0.00 in 246 W/m2
10:44 38 °F 31.4 °F 29.99 in NW 4.5 mph 20 mph 77% 0.00 in 246 W/m2
10:49 38 °F 31.6 °F 29.99 in NW 5.2 mph 20 mph 77.4% 0.00 in 229 W/m2
10:54 38 °F 31.5 °F 30.00 in NW 3.7 mph 20 mph 77.2% 0.00 in 190 W/m2
10:59 37.9 °F 31.2 °F 30.00 in NW 7.8 mph 20 mph 76.4% 0.00 in 190 W/m2
11:04 37.6 °F 30.6 °F 30.00 in NW 7 mph 23 mph 75.8% 0.00 in 139 W/m2
11:09 37.1 °F 30.2 °F 30.00 in NW 10.5 mph 23 mph 75.6% 0.00 in 104 W/m2
11:14 36.7 °F 30 °F 30.00 in NW 4.4 mph 23 mph 76.3% 0.00 in 63 W/m2
11:19 36.5 °F 30 °F 30.01 in NW 5 mph 23 mph 77% 0.00 in 54 W/m2
11:24 36.2 °F 29.7 °F 30.01 in NW 8.6 mph 23 mph 77% 0.00 in 65 W/m2
11:29 35.9 °F 29.4 °F 30.01 in NW 8.4 mph 23 mph 77% 0.00 in 253 W/m2
11:34 35.8 °F 29.4 °F 30.02 in NW 5.8 mph 23 mph 77.2% 0.00 in 253 W/m2
11:39 35.9 °F 29.8 °F 30.02 in NW 7.4 mph 15 mph 78% 0.00 in 141 W/m2
11:44 35.9 °F 29.5 °F 30.02 in NW 6.4 mph 16 mph 77.1% 0.00 in 114 W/m2
11:49 35.9 °F 29.2 °F 30.02 in NNW 7.9 mph 16 mph 76.5% 0.00 in 151 W/m2
11:54 35.9 °F 28.8 °F 30.02 in NW 10.3 mph 20 mph 75.3% 0.00 in 167 W/m2
11:59 35.8 °F 28.7 °F 30.02 in NNW 8.1 mph 20 mph 75% 0.00 in 192 W/m2
12:09 36 °F 28.6 °F 30.02 in NW 6.8 mph 15 mph 74.3% 0.00 in 313 W/m2
12:14 36.1 °F 28.7 °F 30.02 in NW 7.4 mph 16 mph 74.1% 0.00 in 179 W/m2
12:19 36.1 °F 28.6 °F 30.03 in NW 5.5 mph 16 mph 74.1% 0.00 in 149 W/m2
12:24 36 °F 28.7 °F 30.03 in NW 6.8 mph 16 mph 74.6% 0.00 in 172 W/m2
12:29 35.9 °F 28.5 °F 30.03 in NW 3.7 mph 16 mph 74.2% 0.00 in 185 W/m2
12:34 36.1 °F 28.8 °F 30.03 in NNW 5.5 mph 17 mph 74.5% 0.00 in 176 W/m2
12:39 36.1 °F 28.6 °F 30.03 in NW 5.7 mph 17 mph 74% 0.00 in 162 W/m2
12:44 36 °F 28.3 °F 30.03 in WNW 7.9 mph 17 mph 73.2% 0.00 in 125 W/m2
12:49 35.8 °F 28.2 °F 30.03 in NW 6.4 mph 17 mph 73.6% 0.00 in 178 W/m2
12:54 35.7 °F 28.1 °F 30.03 in WNW 6.4 mph 17 mph 73.7% 0.00 in 267 W/m2
12:59 35.9 °F 28.4 °F 30.02 in NW 3.8 mph 17 mph 74% 0.00 in 204 W/m2
13:04 36.1 °F 28.5 °F 30.02 in NW 4.9 mph 17 mph 73.9% 0.00 in 183 W/m2
13:09 36.1 °F 28.2 °F 30.03 in NW 7.8 mph 20 mph 72.5% 0.00 in 183 W/m2
13:13 36.1 °F 27.8 °F 30.03 in NW 8.2 mph 20 mph 71.7% 0.00 in 155 W/m2
13:19 35.8 °F 27.3 °F 30.03 in NNW 8.2 mph 20 mph 71% 0.00 in 132 W/m2
13:24 35.5 °F 26.9 °F 30.03 in NW 6.4 mph 20 mph 70.6% 0.00 in 142 W/m2
13:29 35.3 °F 26.5 °F 30.04 in NNW 7.2 mph 20 mph 70% 0.00 in 144 W/m2
13:34 35.3 °F 26.8 °F 30.04 in NW 3.7 mph 20 mph 70.9% 0.00 in 165 W/m2
13:39 35.6 °F 27.3 °F 30.04 in WNW 7.7 mph 15 mph 71.7% 0.00 in 243 W/m2
13:44 35.8 °F 27.1 °F 30.04 in NW 3.2 mph 15 mph 70.3% 0.00 in 165 W/m2
13:49 36 °F 27.1 °F 30.05 in WNW 5.8 mph 16 mph 69.7% 0.00 in 158 W/m2
13:54 35.9 °F 26.7 °F 30.04 in NW 6.1 mph 18 mph 69% 0.00 in 206 W/m2
13:59 35.8 °F 26.6 °F 30.05 in WNW 4.7 mph 18 mph 68.8% 0.00 in 97 W/m2
14:04 35.6 °F 26.6 °F 30.05 in NW 2.5 mph 18 mph 69.4% 0.00 in 174 W/m2
14:09 35.7 °F 26.8 °F 30.06 in NW 6 mph 15 mph 70% 0.00 in 216 W/m2
14:14 35.9 °F 26.6 °F 30.06 in NW 6.3 mph 17 mph 68.7% 0.00 in 197 W/m2
14:19 35.9 °F 26.4 °F 30.06 in NW 8.1 mph 22 mph 68.2% 0.00 in 181 W/m2
14:24 35.7 °F 26.4 °F 30.05 in NW 4.4 mph 22 mph 68.7% 0.00 in 165 W/m2
14:29 35.6 °F 26.5 °F 30.05 in NW 6.4 mph 22 mph 69% 0.00 in 160 W/m2
14:34 35.5 °F 26.3 °F 30.05 in NW 5.4 mph 22 mph 69% 0.00 in 88 W/m2
14:39 35.2 °F 26.2 °F 30.05 in NW 4.2 mph 14 mph 69.2% 0.00 in 70 W/m2
14:44 35.1 °F 26.1 °F 30.05 in NW 2.4 mph 14 mph 69.3% 0.00 in 60 W/m2
14:49 35.2 °F 26.1 °F 30.06 in NNW 2.8 mph 14 mph 69% 0.00 in 49 W/m2
14:54 35.2 °F 26.1 °F 30.07 in NW 5.7 mph 16 mph 69% 0.00 in 49 W/m2
14:59 35 °F 25.6 °F 30.07 in NW 6.5 mph 16 mph 68.3% 0.00 in 42 W/m2
15:04 34.5 °F 25.4 °F 30.07 in NW 4 mph 16 mph 69% 0.00 in 42 W/m2
15:09 34.3 °F 25.5 °F 30.07 in NW 3.7 mph 16 mph 69.8% 0.00 in 40 W/m2
15:14 34.1 °F 25.2 °F 30.08 in NNW 6.2 mph 17 mph 69.4% 0.00 in 35 W/m2
15:19 33.8 °F 24.7 °F 30.08 in NNW 6.6 mph 20 mph 69% 0.00 in 28 W/m2
15:24 33.6 °F 24.7 °F 30.08 in NW 4.4 mph 20 mph 69.6% 0.00 in 30 W/m2
15:29 33.5 °F 24.9 °F 30.09 in NW 4.6 mph 20 mph 70.4% 0.00 in 26 W/m2
15:34 33.3 °F 24.9 °F 30.09 in NW 5.2 mph 20 mph 71% 0.00 in 26 W/m2
15:39 33.1 °F 24.7 °F 30.09 in NNW 6.4 mph 16 mph 71% 0.00 in 25 W/m2
15:44 33 °F 24.6 °F 30.10 in NW 6.8 mph 16 mph 71% 0.00 in 23 W/m2
15:49 32.9 °F 24.5 °F 30.10 in NNW 3.6 mph 16 mph 71% 0.00 in 25 W/m2
15:54 32.8 °F 24.8 °F 30.10 in NNW 3.1 mph 16 mph 72% 0.00 in 26 W/m2
15:59 32.8 °F 24.8 °F 30.11 in NW 2.5 mph 16 mph 72% 0.00 in 21 W/m2
16:00 32.7 °F 24.7 °F 30.11 in Calm   16 mph 72% 0.00 in 21 W/m2
16:09 32.7 °F 24.9 °F 30.10 in NNW 4.5 mph 17 mph 72.8% 0.00 in 11 W/m2
16:14 32.6 °F 24.7 °F 30.11 in NW 2.2 mph 17 mph 72.5% 0.00 in 7 W/m2
16:19 32.5 °F 24.8 °F 30.11 in NNW 3.4 mph 17 mph 73% 0.00 in 5 W/m2
16:24 32.3 °F 24.7 °F 30.11 in NW 4.2 mph 17 mph 73% 0.00 in 0 W/m2
16:29 32.2 °F 24.8 °F 30.12 in NNW 5.1 mph 17 mph 73.9% 0.00 in 0 W/m2
16:34 32.1 °F 24.8 °F 30.12 in NW 5.5 mph 17 mph 74% 0.00 in 0 W/m2
16:39 32 °F 24.7 °F 30.12 in NNW 4.1 mph 14 mph 74% 0.00 in 0 W/m2
16:44 32 °F 24.6 °F 30.12 in NNW 3.4 mph 14 mph 74% 0.00 in 0 W/m2
16:49 31.9 °F 24.6 °F 30.13 in NNW 2.8 mph 14 mph 74% 0.00 in 0 W/m2
16:54 31.8 °F 24.4 °F 30.13 in NW 3 mph 14 mph 74% 0.00 in 0 W/m2
16:59 31.7 °F 24.6 °F 30.13 in NW 1.7 mph 14 mph 74.9% 0.00 in 0 W/m2
17:04 31.6 °F 24.4 °F 30.13 in NNW 3.5 mph 14 mph 74.6% 0.00 in 0 W/m2
17:09 31.5 °F 24.2 °F 30.13 in NNW 3.7 mph 12 mph 74.2% 0.00 in 0 W/m2
17:14 31.4 °F 24.1 °F 30.13 in NW 6.6 mph 15 mph 74% 0.00 in 0 W/m2
17:19 31.4 °F 24.1 °F 30.13 in NW 3.7 mph 15 mph 74% 0.00 in 0 W/m2
17:24 31.3 °F 24 °F 30.13 in NNW 4.3 mph 15 mph 74% 0.00 in 0 W/m2
17:29 31.3 °F 23.9 °F 30.14 in NNW 3.8 mph 15 mph 74% 0.00 in 0 W/m2
17:34 31.2 °F 24 °F 30.14 in NW 3.7 mph 15 mph 74.4% 0.00 in 0 W/m2
17:39 31.1 °F 24.1 °F 30.14 in NW 1.8 mph 10 mph 74.8% 0.00 in 0 W/m2
17:44 31.1 °F 24.1 °F 30.14 in NNW 1.7 mph 10 mph 75% 0.00 in 0 W/m2
17:49 31 °F 24 °F 30.14 in NW 3.4 mph 10 mph 75% 0.00 in 0 W/m2
17:54 30.9 °F 24 °F 30.14 in NNW 4.7 mph 14 mph 75.3% 0.00 in 0 W/m2
17:59 30.8 °F 23.9 °F 30.14 in NNW 4.8 mph 14 mph 75.1% 0.00 in 0 W/m2
18:04 30.8 °F 23.8 °F 30.14 in NNW 5.2 mph 15 mph 75% 0.00 in 0 W/m2
18:09 30.7 °F 23.7 °F 30.14 in NNW 4.3 mph 15 mph 74.8% 0.00 in 0 W/m2
18:14 30.7 °F 23.4 °F 30.14 in NNW 3.3 mph 15 mph 74.2% 0.00 in 0 W/m2
18:19 30.6 °F 23.5 °F 30.14 in NNW 3.7 mph 15 mph 74.6% 0.00 in 0 W/m2
18:24 30.5 °F 23.6 °F 30.14 in NNW 1.8 mph 15 mph 75% 0.00 in 0 W/m2
18:29 30.4 °F 23.5 °F 30.15 in NNW 1.6 mph 15 mph 75% 0.00 in 0 W/m2
18:34 30.3 °F 23.5 °F 30.15 in NNW 1.8 mph 15 mph 75.4% 0.00 in 0 W/m2
18:39 30.2 °F 23.6 °F 30.15 in NW 2.9 mph 11 mph 76% 0.00 in 0 W/m2
18:44 30.1 °F 23.5 °F 30.15 in NW 5.1 mph 13 mph 76% 0.00 in 0 W/m2
18:49 30 °F 23.4 °F 30.16 in NNW 5.9 mph 13 mph 76% 0.00 in 0 W/m2
18:54 29.9 °F 23.3 °F 30.16 in NNW 5.3 mph 13 mph 76% 0.00 in 0 W/m2
18:59 29.9 °F 23.3 °F 30.16 in NNW 3.4 mph 13 mph 76% 0.00 in 0 W/m2
19:04 29.8 °F 23.2 °F 30.16 in NNW 1.7 mph 13 mph 76% 0.00 in 0 W/m2
19:09 29.8 °F 23.1 °F 30.17 in NNW 2.1 mph 12 mph 76% 0.00 in 0 W/m2
19:14 29.7 °F 23 °F 30.17 in NNW 3.3 mph 12 mph 76% 0.00 in 0 W/m2
19:19 29.6 °F 23 °F 30.18 in NNW 2.4 mph 12 mph 76% 0.00 in 0 W/m2
19:24 29.5 °F 22.9 °F 30.18 in NNW 3.8 mph 12 mph 76% 0.00 in 0 W/m2
19:29 29.4 °F 22.7 °F 30.18 in NNW 2.9 mph 14 mph 75.7% 0.00 in 0 W/m2
19:34 29.4 °F 22.5 °F 30.18 in NW 2.3 mph 14 mph 75% 0.00 in 0 W/m2
19:39 29.3 °F 22.4 °F 30.19 in NNW 1.8 mph 12 mph 75% 0.00 in 0 W/m2
19:44 29.3 °F 22.4 °F 30.19 in NW 2 mph 12 mph 75% 0.00 in 0 W/m2
19:49 29.2 °F 22.3 °F 30.19 in NNW 2.9 mph 12 mph 75.1% 0.00 in 0 W/m2
19:54 29.2 °F 22.4 °F 30.19 in NNW 2.2 mph 12 mph 75.6% 0.00 in 0 W/m2
19:59 29.1 °F 22.5 °F 30.19 in NNW 2.7 mph 12 mph 76% 0.00 in 0 W/m2
20:09 29 °F 22.4 °F 30.19 in NNW 1.8 mph 10 mph 76% 0.00 in 0 W/m2
20:14 28.9 °F 22.3 °F 30.20 in NNW 3.9 mph 12 mph 76% 0.00 in 0 W/m2
20:19 28.9 °F 22.3 °F 30.21 in NNW 1.2 mph 12 mph 76% 0.00 in 0 W/m2
20:24 28.8 °F 22.2 °F 30.21 in NNW 1.8 mph 12 mph 76% 0.00 in 0 W/m2
20:29 28.8 °F 22.2 °F 30.21 in NW 1.7 mph 12 mph 76% 0.00 in 0 W/m2
20:34 28.7 °F 22.1 °F 30.21 in NNW 1.4 mph 12 mph 76% 0.00 in 0 W/m2
20:39 28.7 °F 22.1 °F 30.21 in NNW 2.9 mph 8 mph 76% 0.00 in 0 W/m2
20:44 28.6 °F 22 °F 30.21 in NW 3.9 mph 12 mph 76% 0.00 in 0 W/m2
20:49 28.5 °F 21.9 °F 30.21 in NW 3.9 mph 14 mph 76% 0.00 in 0 W/m2
20:54 28.5 °F 21.9 °F 30.21 in NNW 2.2 mph 14 mph 76% 0.00 in 0 W/m2
20:59 28.5 °F 21.9 °F 30.21 in NNW 3.5 mph 14 mph 76% 0.00 in 0 W/m2
21:04 28.4 °F 21.8 °F 30.22 in NW 0.6 mph 14 mph 76% 0.00 in 0 W/m2
21:09 28.4 °F 21.8 °F 30.22 in NNW 2.1 mph 7 mph 76% 0.00 in 0 W/m2
21:14 28.3 °F 21.6 °F 30.22 in NW 3.3 mph 11 mph 75.7% 0.00 in 0 W/m2
21:19 28.3 °F 21.4 °F 30.22 in NNW 1.3 mph 11 mph 75% 0.00 in 0 W/m2
21:24 28.3 °F 21.4 °F 30.22 in NNW 1.2 mph 11 mph 75% 0.00 in 0 W/m2
21:29 28.2 °F 21.3 °F 30.22 in NNW 1.8 mph 11 mph 75% 0.00 in 0 W/m2
21:34 28.1 °F 21.2 °F 30.22 in NNW 1.3 mph 11 mph 75% 0.00 in 0 W/m2
21:39 28.1 °F 21.2 °F 30.22 in NNW 1.4 mph 6 mph 75% 0.00 in 0 W/m2
21:44 28 °F 21.1 °F 30.22 in NNW 1.6 mph 7 mph 75% 0.00 in 0 W/m2
21:49 27.9 °F 21.1 °F 30.22 in NNW 0.9 mph 7 mph 75% 0.00 in 0 W/m2
21:54 27.9 °F 21 °F 30.22 in NNW 0.6 mph 7 mph 75% 0.00 in 0 W/m2
21:59 27.8 °F 21 °F 30.22 in NNW 0.9 mph 7 mph 75.1% 0.00 in 0 W/m2
22:04 27.8 °F 21 °F 30.22 in NNW 2.2 mph 7 mph 75.5% 0.00 in 0 W/m2
22:09 27.7 °F 21.1 °F 30.22 in NNW 2.1 mph 6 mph 76% 0.00 in 0 W/m2
22:14 27.6 °F 21 °F 30.22 in NNW 0.7 mph 7 mph 76% 0.00 in 0 W/m2
22:19 27.5 °F 21 °F 30.22 in NNW 1.4 mph 7 mph 76% 0.00 in 0 W/m2
22:24 27.4 °F 20.9 °F 30.22 in NNW 0.6 mph 7 mph 76% 0.00 in 0 W/m2
22:29 27.4 °F 20.8 °F 30.22 in NNW 0.6 mph 7 mph 76% 0.00 in 0 W/m2
22:34 27.2 °F 20.7 °F 30.22 in NNW 0.3 mph 7 mph 76.1% 0.00 in 0 W/m2
22:39 27.2 °F 20.9 °F 30.22 in NNW 0.1 mph 3 mph 77% 0.00 in 0 W/m2
22:44 27 °F 20.8 °F 30.22 in NNW 0.3 mph 4 mph 77% 0.00 in 0 W/m2
22:49 26.9 °F 20.7 °F 30.22 in NNW 0.8 mph 5 mph 77% 0.00 in 0 W/m2
22:54 26.8 °F 20.7 °F 30.22 in NNW 0.9 mph 5 mph 77.3% 0.00 in 0 W/m2
22:59 26.7 °F 20.8 °F 30.22 in NNW 0.3 mph 5 mph 78% 0.00 in 0 W/m2
23:00 26.7 °F 20.8 °F 30.22 in Calm   5 mph 78% 0.00 in 0 W/m2
23:09 26.6 °F 20.7 °F 30.22 in Calm     78% 0.00 in 0 W/m2
23:14 26.5 °F 20.6 °F 30.22 in Calm     78% 0.00 in 0 W/m2
23:19 26.4 °F 20.6 °F 30.22 in NNW 0.6 mph 4 mph 78.5% 0.00 in 0 W/m2
23:24 26.3 °F 20.7 °F 30.23 in NNW 0.6 mph 4 mph 79% 0.00 in 0 W/m2
23:29 26.3 °F 20.6 °F 30.23 in NNW 0.3 mph 4 mph 79% 0.00 in 0 W/m2
23:34 26.2 °F 20.6 °F 30.23 in NNW 1.2 mph 5 mph 79% 0.00 in 0 W/m2
23:39 26.2 °F 20.5 °F 30.23 in Calm   5 mph 79% 0.00 in 0 W/m2
23:44 26.1 °F 20.5 °F 30.22 in Calm   5 mph 79% 0.00 in 0 W/m2
23:48 26 °F 20.4 °F 30.22 in NNW 0.1 mph 5 mph 79% 0.00 in 0 W/m2
Hartford County Weather
Compliments of Weather Underground - 4 mb